Date,TemperatureHighF,TemperatureAvgF,TemperatureLowF,DewpointHighF,DewpointAvgF,DewpointLowF,HumidityHigh,HumidityAvg,HumidityLow,PressureMaxIn,PressureMinIn,WindSpeedMaxMPH,WindSpeedAvgMPH,GustSpeedMaxMPH,PrecipitationSumIn
2013-3-1,58.3,54.0,50.9,51.8,50.6,48.9,99,88,77,30.08,29.99,11,4,0,0.15
2013-3-2,58.3,50.5,39.0,50.0,45.6,38.4,98,84,68,30.00,29.78,8,4,0,0.19
2013-3-3,50.2,42.2,36.9,38.5,36.0,30.1,99,80,50,30.05,29.93,13,2,0,0.00
2013-3-4,56.1,43.2,32.5,35.2,30.0,24.2,97,64,32,30.04,29.66,8,2,0,0.00
2013-3-5,50.2,44.5,39.0,41.4,36.4,29.2,91,73,57,29.66,29.46,7,2,0,0.00
2013-3-6,44.6,43.0,41.4,42.3,40.7,38.8,99,92,80,29.63,29.32,8,3,0,0.63
2013-3-7,52.7,45.7,40.6,43.3,41.7,38.3,99,87,58,29.83,29.64,6,2,0,0.25
2013-3-8,51.4,43.2,37.4,41.6,38.8,37.1,99,86,60,29.98,29.82,8,3,0,0.00
2013-3-9,56.5,44.1,36.3,41.6,38.5,36.0,99,83,49,30.23,29.99,5,2,0,0.00
2013-3-10,49.3,44.4,39.9,43.3,40.5,38.0,96,87,72,30.24,30.17,7,1,0,0.00
2013-3-11,52.5,47.3,42.6,47.4,43.5,40.7,99,87,67,30.18,29.87,5,2,0,0.01
2013-3-12,55.9,52.3,49.3,51.8,49.2,47.0,99,90,72,29.86,29.77,8,4,0,0.05
2013-3-13,53.4,52.0,51.1,51.9,50.0,48.7,98,93,89,29.92,29.80,8,3,0,0.14
2013-3-14,54.1,51.2,48.7,49.6,47.8,44.8,99,88,72,29.86,29.75,8,2,0,0.01
2013-3-15,59.5,52.8,49.5,50.4,48.8,46.2,98,87,70,29.92,29.84,9,3,0,0.00
2013-3-16,51.6,48.7,41.7,46.5,43.3,36.2,90,82,65,29.84,29.58,12,4,0,0.03
2013-3-17,51.1,44.7,39.7,38.7,36.3,33.5,95,74,54,29.91,29.86,9,4,0,0.02
2013-3-18,54.9,45.0,40.6,42.0,37.0,32.9,94,75,47,29.97,29.83,9,3,0,0.01
2013-3-19,55.2,43.6,37.6,43.6,36.3,31.3,99,77,43,29.95,29.31,5,2,0,0.43
2013-3-20,52.7,47.3,40.6,50.2,41.3,34.0,99,80,64,29.73,29.10,14,6,0,0.66
2013-3-21,49.1,41.5,37.2,38.1,35.8,34.5,95,81,57,29.94,29.74,9,3,0,0.02
2013-3-22,49.8,40.2,36.0,36.2,33.0,27.5,96,77,45,30.10,29.93,7,2,0,0.03
2013-3-23,52.2,42.0,34.9,34.0,30.9,23.5,92,68,33,30.13,30.01,5,2,0,0.00
2013-3-24,54.7,43.3,33.8,38.2,33.7,30.2,93,71,39,30.03,29.83,5,2,0,0.00
2013-3-25,60.1,48.6,35.2,38.5,32.4,27.2,90,56,32,29.85,29.63,6,2,0,0.00
2013-3-26,59.4,51.9,46.0,41.5,38.6,34.5,78,61,47,29.74,29.66,6,2,0,0.00
2013-3-27,57.2,51.1,46.9,48.1,42.2,37.5,81,72,57,29.69,29.65,4,2,0,0.02
2013-3-28,63.7,52.7,46.9,48.5,47.3,45.2,99,85,51,29.80,29.76,6,1,0,0.02
2013-3-29,63.5,55.7,47.3,46.8,44.9,43.5,91,69,49,29.95,29.89,9,2,0,0.00
2013-3-30,62.4,51.7,42.6,47.9,45.1,42.3,99,80,57,29.97,29.78,9,2,0,0.00
2013-3-31,66.4,51.6,45.3,46.8,43.4,41.6,94,75,46,29.79,29.61,6,1,0,0.00